sensor_id;sensor_type;location;lat;lon;timestamp;temperature;humidity
1686;DHT22;840;47.980;7.830;2023-08-06T00:00:38;18.10;99.90
1686;DHT22;840;47.980;7.830;2023-08-06T00:03:05;18.00;99.90
1686;DHT22;840;47.980;7.830;2023-08-06T00:05:32;17.90;99.90
1686;DHT22;840;47.980;7.830;2023-08-06T00:07:58;17.80;99.90
1686;DHT22;840;47.980;7.830;2023-08-06T00:10:25;17.70;99.90
1686;DHT22;840;47.980;7.830;2023-08-06T00:12:53;17.60;99.90
1686;DHT22;840;47.980;7.830;2023-08-06T00:15:20;17.50;99.90
1686;DHT22;840;47.980;7.830;2023-08-06T00:17:47;17.50;99.90
1686;DHT22;840;47.980;7.830;2023-08-06T00:20:13;17.50;99.90
1686;DHT22;840;47.980;7.830;2023-08-06T00:22:40;17.50;99.90
1686;DHT22;840;47.980;7.830;2023-08-06T00:25:08;17.50;99.90
1686;DHT22;840;47.980;7.830;2023-08-06T00:27:35;17.40;99.90
1686;DHT22;840;47.980;7.830;2023-08-06T00:30:03;17.40;99.90
1686;DHT22;840;47.980;7.830;2023-08-06T00:32:30;17.40;99.90
1686;DHT22;840;47.980;7.830;2023-08-06T00:34:57;17.40;99.90
1686;DHT22;840;47.980;7.830;2023-08-06T00:37:23;17.40;99.90
1686;DHT22;840;47.980;7.830;2023-08-06T00:39:50;17.30;99.90
1686;DHT22;840;47.980;7.830;2023-08-06T00:42:17;17.30;99.90
1686;DHT22;840;47.980;7.830;2023-08-06T00:44:46;17.30;99.90
1686;DHT22;840;47.980;7.830;2023-08-06T00:47:14;17.30;99.90
1686;DHT22;840;47.980;7.830;2023-08-06T00:49:41;17.30;99.90
1686;DHT22;840;47.980;7.830;2023-08-06T00:52:08;17.30;99.90
1686;DHT22;840;47.980;7.830;2023-08-06T00:54:36;17.30;99.90
1686;DHT22;840;47.980;7.830;2023-08-06T00:57:04;17.30;99.90
1686;DHT22;840;47.980;7.830;2023-08-06T00:59:31;17.30;99.90
1686;DHT22;840;47.980;7.830;2023-08-06T01:01:58;17.20;99.90
1686;DHT22;840;47.980;7.830;2023-08-06T01:04:26;17.30;99.90
1686;DHT22;840;47.980;7.830;2023-08-06T01:07:00;17.30;99.90
1686;DHT22;840;47.980;7.830;2023-08-06T01:09:34;17.30;99.90
1686;DHT22;840;47.980;7.830;2023-08-06T01:12:09;17.30;99.90
1686;DHT22;840;47.980;7.830;2023-08-06T01:14:44;17.30;99.90
1686;DHT22;840;47.980;7.830;2023-08-06T01:17:12;17.30;99.90
1686;DHT22;840;47.980;7.830;2023-08-06T01:19:41;17.30;99.90
1686;DHT22;840;47.980;7.830;2023-08-06T01:22:10;17.30;99.90
1686;DHT22;840;47.980;7.830;2023-08-06T01:24:36;17.40;99.90
1686;DHT22;840;47.980;7.830;2023-08-06T01:27:06;17.40;99.90
1686;DHT22;840;47.980;7.830;2023-08-06T01:29:39;17.40;99.90
1686;DHT22;840;47.980;7.830;2023-08-06T01:32:08;17.30;99.90
1686;DHT22;840;47.980;7.830;2023-08-06T01:34:40;17.40;99.90
1686;DHT22;840;47.980;7.830;2023-08-06T01:37:07;17.40;99.90
1686;DHT22;840;47.980;7.830;2023-08-06T01:39:36;17.40;99.90
1686;DHT22;840;47.980;7.830;2023-08-06T01:42:03;17.50;99.90
1686;DHT22;840;47.980;7.830;2023-08-06T01:44:30;17.50;99.90
1686;DHT22;840;47.980;7.830;2023-08-06T01:46:57;17.50;99.90
1686;DHT22;840;47.980;7.830;2023-08-06T01:49:23;17.50;99.90
1686;DHT22;840;47.980;7.830;2023-08-06T01:51:50;17.60;99.90
1686;DHT22;840;47.980;7.830;2023-08-06T01:54:17;17.60;99.90
1686;DHT22;840;47.980;7.830;2023-08-06T01:56:45;17.60;99.90
1686;DHT22;840;47.980;7.830;2023-08-06T01:59:12;17.60;99.90
1686;DHT22;840;47.980;7.830;2023-08-06T02:01:38;17.60;99.90
1686;DHT22;840;47.980;7.830;2023-08-06T02:04:05;17.70;99.90
1686;DHT22;840;47.980;7.830;2023-08-06T02:06:32;17.70;99.90
1686;DHT22;840;47.980;7.830;2023-08-06T02:08:59;17.70;99.90
1686;DHT22;840;47.980;7.830;2023-08-06T02:11:25;17.60;99.90
1686;DHT22;840;47.980;7.830;2023-08-06T02:13:53;17.60;99.90
1686;DHT22;840;47.980;7.830;2023-08-06T02:16:20;17.50;99.90
1686;DHT22;840;47.980;7.830;2023-08-06T02:18:47;17.50;99.90
1686;DHT22;840;47.980;7.830;2023-08-06T02:21:17;17.50;99.90
1686;DHT22;840;47.980;7.830;2023-08-06T02:23:44;17.40;99.90
1686;DHT22;840;47.980;7.830;2023-08-06T02:26:10;17.30;99.90
1686;DHT22;840;47.980;7.830;2023-08-06T02:28:37;17.20;99.90
1686;DHT22;840;47.980;7.830;2023-08-06T02:31:05;17.10;99.90
1686;DHT22;840;47.980;7.830;2023-08-06T02:33:33;16.90;99.90
1686;DHT22;840;47.980;7.830;2023-08-06T02:36:00;16.80;99.90
1686;DHT22;840;47.980;7.830;2023-08-06T02:38:27;16.80;99.90
1686;DHT22;840;47.980;7.830;2023-08-06T02:40:54;16.70;99.90
1686;DHT22;840;47.980;7.830;2023-08-06T02:43:21;16.60;99.90
1686;DHT22;840;47.980;7.830;2023-08-06T02:45:47;16.50;99.90
1686;DHT22;840;47.980;7.830;2023-08-06T02:48:16;16.50;99.90
1686;DHT22;840;47.980;7.830;2023-08-06T02:50:43;16.40;99.90
1686;DHT22;840;47.980;7.830;2023-08-06T02:53:10;16.30;99.90
1686;DHT22;840;47.980;7.830;2023-08-06T02:55:37;16.30;99.90
1686;DHT22;840;47.980;7.830;2023-08-06T02:58:04;16.30;99.90
1686;DHT22;840;47.980;7.830;2023-08-06T03:00:30;16.20;99.90
1686;DHT22;840;47.980;7.830;2023-08-06T03:02:57;16.20;99.90
1686;DHT22;840;47.980;7.830;2023-08-06T03:05:25;16.10;99.90
1686;DHT22;840;47.980;7.830;2023-08-06T03:07:52;16.10;99.90
1686;DHT22;840;47.980;7.830;2023-08-06T03:10:19;16.00;99.90
1686;DHT22;840;47.980;7.830;2023-08-06T03:12:45;15.90;99.90
1686;DHT22;840;47.980;7.830;2023-08-06T03:15:12;15.80;99.90
1686;DHT22;840;47.980;7.830;2023-08-06T03:17:39;15.80;99.90
1686;DHT22;840;47.980;7.830;2023-08-06T03:20:07;15.70;99.90
1686;DHT22;840;47.980;7.830;2023-08-06T03:22:35;15.70;99.90
1686;DHT22;840;47.980;7.830;2023-08-06T03:25:02;15.70;99.90
1686;DHT22;840;47.980;7.830;2023-08-06T03:27:29;15.60;99.90
1686;DHT22;840;47.980;7.830;2023-08-06T03:29:55;15.60;99.90
1686;DHT22;840;47.980;7.830;2023-08-06T03:32:22;15.60;99.90
1686;DHT22;840;47.980;7.830;2023-08-06T03:34:49;15.60;99.90
1686;DHT22;840;47.980;7.830;2023-08-06T03:37:16;15.60;99.90
1686;DHT22;840;47.980;7.830;2023-08-06T03:39:44;15.60;99.90
1686;DHT22;840;47.980;7.830;2023-08-06T03:42:11;15.60;99.90
1686;DHT22;840;47.980;7.830;2023-08-06T03:44:37;15.50;99.90
1686;DHT22;840;47.980;7.830;2023-08-06T03:47:05;15.50;99.90
1686;DHT22;840;47.980;7.830;2023-08-06T03:49:32;15.50;99.90
1686;DHT22;840;47.980;7.830;2023-08-06T03:51:58;15.50;99.90
1686;DHT22;840;47.980;7.830;2023-08-06T03:54:25;15.40;99.90
1686;DHT22;840;47.980;7.830;2023-08-06T03:56:53;15.40;99.90
1686;DHT22;840;47.980;7.830;2023-08-06T03:59:20;15.30;99.90
1686;DHT22;840;47.980;7.830;2023-08-06T04:01:47;15.30;99.90
1686;DHT22;840;47.980;7.830;2023-08-06T04:04:13;15.20;99.90
1686;DHT22;840;47.980;7.830;2023-08-06T04:06:40;15.10;99.90
1686;DHT22;840;47.980;7.830;2023-08-06T04:09:07;15.00;99.90
1686;DHT22;840;47.980;7.830;2023-08-06T04:11:34;15.00;99.90
1686;DHT22;840;47.980;7.830;2023-08-06T04:14:02;14.90;99.90
1686;DHT22;840;47.980;7.830;2023-08-06T04:16:28;14.90;99.90
1686;DHT22;840;47.980;7.830;2023-08-06T04:18:55;14.90;99.90
1686;DHT22;840;47.980;7.830;2023-08-06T04:21:23;14.90;99.90
1686;DHT22;840;47.980;7.830;2023-08-06T04:23:50;14.90;99.90
1686;DHT22;840;47.980;7.830;2023-08-06T04:26:17;14.90;99.90
1686;DHT22;840;47.980;7.830;2023-08-06T04:28:44;14.90;99.90
1686;DHT22;840;47.980;7.830;2023-08-06T04:31:12;14.90;99.90
1686;DHT22;840;47.980;7.830;2023-08-06T04:33:38;14.80;99.90
1686;DHT22;840;47.980;7.830;2023-08-06T04:36:06;14.90;99.90
1686;DHT22;840;47.980;7.830;2023-08-06T04:38:33;14.90;99.90
1686;DHT22;840;47.980;7.830;2023-08-06T04:41:02;14.90;99.90
1686;DHT22;840;47.980;7.830;2023-08-06T04:43:29;14.90;99.90
1686;DHT22;840;47.980;7.830;2023-08-06T04:45:56;14.90;99.90
1686;DHT22;840;47.980;7.830;2023-08-06T04:48:24;14.90;99.90
1686;DHT22;840;47.980;7.830;2023-08-06T04:50:51;14.80;99.90
1686;DHT22;840;47.980;7.830;2023-08-06T04:53:17;14.80;99.90
1686;DHT22;840;47.980;7.830;2023-08-06T04:55:44;14.90;99.90
1686;DHT22;840;47.980;7.830;2023-08-06T04:58:11;14.80;99.90
1686;DHT22;840;47.980;7.830;2023-08-06T05:00:38;14.80;99.90
1686;DHT22;840;47.980;7.830;2023-08-06T05:03:06;14.80;99.90
1686;DHT22;840;47.980;7.830;2023-08-06T05:05:34;14.70;99.90
1686;DHT22;840;47.980;7.830;2023-08-06T05:08:01;14.70;99.90
1686;DHT22;840;47.980;7.830;2023-08-06T05:10:28;14.60;99.90
1686;DHT22;840;47.980;7.830;2023-08-06T05:12:54;14.50;99.90
1686;DHT22;840;47.980;7.830;2023-08-06T05:15:21;14.40;99.90
1686;DHT22;840;47.980;7.830;2023-08-06T05:17:50;14.40;99.90
1686;DHT22;840;47.980;7.830;2023-08-06T05:20:17;14.30;99.90
1686;DHT22;840;47.980;7.830;2023-08-06T05:22:45;14.30;99.90
1686;DHT22;840;47.980;7.830;2023-08-06T05:25:13;14.20;99.90
1686;DHT22;840;47.980;7.830;2023-08-06T05:27:40;14.20;99.90
1686;DHT22;840;47.980;7.830;2023-08-06T05:30:08;14.20;99.90
1686;DHT22;840;47.980;7.830;2023-08-06T05:32:35;14.10;99.90
1686;DHT22;840;47.980;7.830;2023-08-06T05:35:02;14.20;99.90
1686;DHT22;840;47.980;7.830;2023-08-06T05:37:29;14.10;99.90
1686;DHT22;840;47.980;7.830;2023-08-06T05:39:57;14.20;99.90
1686;DHT22;840;47.980;7.830;2023-08-06T05:42:24;14.20;99.90
1686;DHT22;840;47.980;7.830;2023-08-06T05:44:50;14.30;99.90
1686;DHT22;840;47.980;7.830;2023-08-06T05:47:17;14.30;99.90
1686;DHT22;840;47.980;7.830;2023-08-06T05:49:45;14.20;99.90
1686;DHT22;840;47.980;7.830;2023-08-06T05:52:11;14.20;99.90
1686;DHT22;840;47.980;7.830;2023-08-06T05:54:38;14.20;99.90
1686;DHT22;840;47.980;7.830;2023-08-06T05:57:07;14.20;99.90
1686;DHT22;840;47.980;7.830;2023-08-06T05:59:34;14.20;99.90
1686;DHT22;840;47.980;7.830;2023-08-06T06:02:01;14.20;99.90
1686;DHT22;840;47.980;7.830;2023-08-06T06:04:28;14.20;99.90
1686;DHT22;840;47.980;7.830;2023-08-06T06:06:55;14.20;99.90
1686;DHT22;840;47.980;7.830;2023-08-06T06:09:22;14.30;99.90
1686;DHT22;840;47.980;7.830;2023-08-06T06:11:49;14.40;99.90
1686;DHT22;840;47.980;7.830;2023-08-06T06:14:17;14.50;99.90
1686;DHT22;840;47.980;7.830;2023-08-06T06:16:44;14.60;99.90
1686;DHT22;840;47.980;7.830;2023-08-06T06:19:11;14.70;99.90
1686;DHT22;840;47.980;7.830;2023-08-06T06:21:38;14.70;99.90
1686;DHT22;840;47.980;7.830;2023-08-06T06:24:05;14.70;99.90
1686;DHT22;840;47.980;7.830;2023-08-06T06:26:33;14.60;99.90
1686;DHT22;840;47.980;7.830;2023-08-06T06:29:00;14.60;99.90
1686;DHT22;840;47.980;7.830;2023-08-06T06:31:28;14.60;99.90
1686;DHT22;840;47.980;7.830;2023-08-06T06:33:55;14.60;99.90
1686;DHT22;840;47.980;7.830;2023-08-06T06:36:21;14.60;99.90
1686;DHT22;840;47.980;7.830;2023-08-06T06:38:49;14.50;99.90
1686;DHT22;840;47.980;7.830;2023-08-06T06:41:15;14.50;99.90
1686;DHT22;840;47.980;7.830;2023-08-06T06:43:42;14.40;99.90
1686;DHT22;840;47.980;7.830;2023-08-06T06:46:09;14.50;99.90
1686;DHT22;840;47.980;7.830;2023-08-06T06:48:38;14.40;99.90
1686;DHT22;840;47.980;7.830;2023-08-06T06:51:04;14.40;99.90
1686;DHT22;840;47.980;7.830;2023-08-06T06:53:31;14.40;99.90
1686;DHT22;840;47.980;7.830;2023-08-06T06:56:02;14.30;99.90
1686;DHT22;840;47.980;7.830;2023-08-06T06:58:30;14.30;99.90
1686;DHT22;840;47.980;7.830;2023-08-06T07:00:56;14.30;99.90
1686;DHT22;840;47.980;7.830;2023-08-06T07:03:23;14.40;99.90
1686;DHT22;840;47.980;7.830;2023-08-06T07:05:52;14.30;99.90
1686;DHT22;840;47.980;7.830;2023-08-06T07:08:18;14.30;99.90
1686;DHT22;840;47.980;7.830;2023-08-06T07:10:45;14.40;99.90
1686;DHT22;840;47.980;7.830;2023-08-06T07:13:12;14.40;99.90
1686;DHT22;840;47.980;7.830;2023-08-06T07:15:39;14.40;99.90
1686;DHT22;840;47.980;7.830;2023-08-06T07:18:05;14.40;99.90
1686;DHT22;840;47.980;7.830;2023-08-06T07:20:32;14.40;99.90
1686;DHT22;840;47.980;7.830;2023-08-06T07:23:01;14.50;99.90
1686;DHT22;840;47.980;7.830;2023-08-06T07:25:28;14.50;99.90
1686;DHT22;840;47.980;7.830;2023-08-06T07:27:54;14.50;99.90
1686;DHT22;840;47.980;7.830;2023-08-06T07:30:22;14.60;99.90
1686;DHT22;840;47.980;7.830;2023-08-06T07:32:49;14.60;99.90
1686;DHT22;840;47.980;7.830;2023-08-06T07:35:16;14.60;99.90
1686;DHT22;840;47.980;7.830;2023-08-06T07:37:43;14.70;99.90
1686;DHT22;840;47.980;7.830;2023-08-06T07:40:11;14.70;99.90
1686;DHT22;840;47.980;7.830;2023-08-06T07:42:39;14.70;99.90
1686;DHT22;840;47.980;7.830;2023-08-06T07:45:07;14.80;99.90
1686;DHT22;840;47.980;7.830;2023-08-06T07:47:34;14.80;99.90
1686;DHT22;840;47.980;7.830;2023-08-06T07:50:01;14.80;99.90
1686;DHT22;840;47.980;7.830;2023-08-06T07:52:28;14.80;99.90
1686;DHT22;840;47.980;7.830;2023-08-06T07:54:55;14.90;99.90
1686;DHT22;840;47.980;7.830;2023-08-06T07:57:23;14.90;99.90
1686;DHT22;840;47.980;7.830;2023-08-06T07:59:50;15.10;99.90
1686;DHT22;840;47.980;7.830;2023-08-06T08:02:19;15.10;99.90
1686;DHT22;840;47.980;7.830;2023-08-06T08:04:46;15.10;99.90
1686;DHT22;840;47.980;7.830;2023-08-06T08:07:13;15.20;99.90
1686;DHT22;840;47.980;7.830;2023-08-06T08:09:39;15.20;99.90
1686;DHT22;840;47.980;7.830;2023-08-06T08:12:07;15.20;99.90
1686;DHT22;840;47.980;7.830;2023-08-06T08:14:35;15.20;99.90
1686;DHT22;840;47.980;7.830;2023-08-06T08:17:03;15.10;99.90
1686;DHT22;840;47.980;7.830;2023-08-06T08:19:30;15.10;99.90
1686;DHT22;840;47.980;7.830;2023-08-06T08:21:57;15.10;99.90
1686;DHT22;840;47.980;7.830;2023-08-06T08:24:24;15.10;99.90
1686;DHT22;840;47.980;7.830;2023-08-06T08:26:51;15.00;99.90
1686;DHT22;840;47.980;7.830;2023-08-06T08:29:18;15.00;99.90
1686;DHT22;840;47.980;7.830;2023-08-06T08:31:47;15.00;99.90
1686;DHT22;840;47.980;7.830;2023-08-06T08:34:15;14.90;99.90
1686;DHT22;840;47.980;7.830;2023-08-06T08:36:42;14.90;99.90
1686;DHT22;840;47.980;7.830;2023-08-06T08:39:09;14.90;99.90
1686;DHT22;840;47.980;7.830;2023-08-06T08:41:36;14.80;99.90
1686;DHT22;840;47.980;7.830;2023-08-06T08:44:06;14.70;99.90
1686;DHT22;840;47.980;7.830;2023-08-06T08:46:35;14.70;99.90
1686;DHT22;840;47.980;7.830;2023-08-06T08:49:04;14.80;99.90
1686;DHT22;840;47.980;7.830;2023-08-06T08:51:31;14.80;99.90
1686;DHT22;840;47.980;7.830;2023-08-06T08:53:59;14.90;99.90
1686;DHT22;840;47.980;7.830;2023-08-06T08:56:26;15.00;99.90
1686;DHT22;840;47.980;7.830;2023-08-06T08:58:53;15.10;99.90
1686;DHT22;840;47.980;7.830;2023-08-06T09:01:21;15.20;99.90
1686;DHT22;840;47.980;7.830;2023-08-06T09:03:50;15.30;99.90
1686;DHT22;840;47.980;7.830;2023-08-06T09:06:20;15.30;99.90
1686;DHT22;840;47.980;7.830;2023-08-06T09:08:52;15.30;99.90
1686;DHT22;840;47.980;7.830;2023-08-06T09:11:21;15.40;99.90
1686;DHT22;840;47.980;7.830;2023-08-06T09:13:48;15.40;99.90
1686;DHT22;840;47.980;7.830;2023-08-06T09:16:15;15.40;99.90
1686;DHT22;840;47.980;7.830;2023-08-06T09:18:42;15.40;99.90
1686;DHT22;840;47.980;7.830;2023-08-06T09:21:14;15.40;99.90
1686;DHT22;840;47.980;7.830;2023-08-06T09:23:43;15.30;99.90
1686;DHT22;840;47.980;7.830;2023-08-06T09:26:12;15.30;99.90
1686;DHT22;840;47.980;7.830;2023-08-06T09:28:40;15.30;99.90
1686;DHT22;840;47.980;7.830;2023-08-06T09:31:08;15.30;99.90
1686;DHT22;840;47.980;7.830;2023-08-06T09:33:37;15.40;99.90
1686;DHT22;840;47.980;7.830;2023-08-06T09:36:10;15.40;99.90
1686;DHT22;840;47.980;7.830;2023-08-06T09:38:38;15.50;99.90
1686;DHT22;840;47.980;7.830;2023-08-06T09:41:07;15.50;99.90
1686;DHT22;840;47.980;7.830;2023-08-06T09:43:41;15.50;99.90
1686;DHT22;840;47.980;7.830;2023-08-06T09:46:12;15.50;99.90
1686;DHT22;840;47.980;7.830;2023-08-06T09:48:47;15.50;99.90
1686;DHT22;840;47.980;7.830;2023-08-06T09:51:15;15.50;99.90
1686;DHT22;840;47.980;7.830;2023-08-06T09:53:43;15.50;99.90
1686;DHT22;840;47.980;7.830;2023-08-06T09:56:13;15.50;99.90
1686;DHT22;840;47.980;7.830;2023-08-06T09:58:41;15.50;99.90
1686;DHT22;840;47.980;7.830;2023-08-06T10:01:08;15.60;99.90
1686;DHT22;840;47.980;7.830;2023-08-06T10:03:36;15.70;99.90
1686;DHT22;840;47.980;7.830;2023-08-06T10:06:03;15.80;99.90
1686;DHT22;840;47.980;7.830;2023-08-06T10:08:32;15.90;99.90
1686;DHT22;840;47.980;7.830;2023-08-06T10:10:59;16.00;99.90
1686;DHT22;840;47.980;7.830;2023-08-06T10:13:30;16.00;99.90
1686;DHT22;840;47.980;7.830;2023-08-06T10:15:56;16.00;99.90
1686;DHT22;840;47.980;7.830;2023-08-06T10:18:23;16.10;99.90
1686;DHT22;840;47.980;7.830;2023-08-06T10:20:50;16.20;99.90
1686;DHT22;840;47.980;7.830;2023-08-06T10:23:18;16.10;99.90
1686;DHT22;840;47.980;7.830;2023-08-06T10:25:53;16.10;99.90
1686;DHT22;840;47.980;7.830;2023-08-06T10:28:22;16.00;99.90
1686;DHT22;840;47.980;7.830;2023-08-06T10:30:50;15.90;99.90
1686;DHT22;840;47.980;7.830;2023-08-06T10:33:19;15.90;99.90
1686;DHT22;840;47.980;7.830;2023-08-06T10:35:47;15.80;99.90
1686;DHT22;840;47.980;7.830;2023-08-06T10:38:16;15.80;99.90
1686;DHT22;840;47.980;7.830;2023-08-06T10:40:49;15.70;99.90
1686;DHT22;840;47.980;7.830;2023-08-06T10:43:25;15.70;99.90
1686;DHT22;840;47.980;7.830;2023-08-06T10:45:54;15.60;99.90
1686;DHT22;840;47.980;7.830;2023-08-06T10:48:29;15.70;99.90
1686;DHT22;840;47.980;7.830;2023-08-06T10:50:56;15.70;99.90
1686;DHT22;840;47.980;7.830;2023-08-06T10:53:23;15.70;99.90
1686;DHT22;840;47.980;7.830;2023-08-06T10:55:50;15.70;99.90
1686;DHT22;840;47.980;7.830;2023-08-06T10:58:17;15.60;99.90
1686;DHT22;840;47.980;7.830;2023-08-06T11:00:44;15.60;99.90
1686;DHT22;840;47.980;7.830;2023-08-06T11:03:12;15.60;99.90
1686;DHT22;840;47.980;7.830;2023-08-06T11:05:39;15.60;99.90
1686;DHT22;840;47.980;7.830;2023-08-06T11:08:06;15.60;99.90
1686;DHT22;840;47.980;7.830;2023-08-06T11:10:33;15.50;99.90
1686;DHT22;840;47.980;7.830;2023-08-06T11:13:01;15.50;99.90
1686;DHT22;840;47.980;7.830;2023-08-06T11:15:27;15.40;99.90
1686;DHT22;840;47.980;7.830;2023-08-06T11:17:55;15.40;99.90
1686;DHT22;840;47.980;7.830;2023-08-06T11:20:23;15.40;99.90
1686;DHT22;840;47.980;7.830;2023-08-06T11:22:50;15.30;99.90
1686;DHT22;840;47.980;7.830;2023-08-06T11:25:20;15.30;99.90
1686;DHT22;840;47.980;7.830;2023-08-06T11:27:47;15.30;99.90
1686;DHT22;840;47.980;7.830;2023-08-06T11:30:14;15.40;99.90
1686;DHT22;840;47.980;7.830;2023-08-06T11:32:47;15.40;99.90
1686;DHT22;840;47.980;7.830;2023-08-06T11:35:15;15.50;99.90
1686;DHT22;840;47.980;7.830;2023-08-06T11:37:45;15.50;99.90
1686;DHT22;840;47.980;7.830;2023-08-06T11:40:14;15.60;99.90
1686;DHT22;840;47.980;7.830;2023-08-06T11:42:41;15.70;99.90
1686;DHT22;840;47.980;7.830;2023-08-06T11:45:09;15.80;99.90
1686;DHT22;840;47.980;7.830;2023-08-06T11:47:38;15.80;99.90
1686;DHT22;840;47.980;7.830;2023-08-06T11:50:06;15.80;99.90
1686;DHT22;840;47.980;7.830;2023-08-06T11:52:33;15.80;99.90
1686;DHT22;840;47.980;7.830;2023-08-06T11:55:02;15.90;99.90
1686;DHT22;840;47.980;7.830;2023-08-06T11:57:32;15.90;99.90
1686;DHT22;840;47.980;7.830;2023-08-06T12:00:02;16.00;99.90
1686;DHT22;840;47.980;7.830;2023-08-06T12:02:32;16.10;99.90
1686;DHT22;840;47.980;7.830;2023-08-06T12:05:03;16.20;99.90
1686;DHT22;840;47.980;7.830;2023-08-06T12:07:31;16.20;99.90
1686;DHT22;840;47.980;7.830;2023-08-06T12:09:59;16.00;99.90
1686;DHT22;840;47.980;7.830;2023-08-06T12:12:27;16.00;99.90
1686;DHT22;840;47.980;7.830;2023-08-06T12:14:54;16.00;99.90
1686;DHT22;840;47.980;7.830;2023-08-06T12:17:21;16.00;99.90
1686;DHT22;840;47.980;7.830;2023-08-06T12:19:48;16.00;99.90
1686;DHT22;840;47.980;7.830;2023-08-06T12:22:16;16.00;99.90
1686;DHT22;840;47.980;7.830;2023-08-06T12:24:45;16.00;99.90
1686;DHT22;840;47.980;7.830;2023-08-06T12:27:13;16.10;99.90
1686;DHT22;840;47.980;7.830;2023-08-06T12:29:42;16.20;99.90
1686;DHT22;840;47.980;7.830;2023-08-06T12:32:09;16.20;99.90
1686;DHT22;840;47.980;7.830;2023-08-06T12:34:38;16.30;99.90
1686;DHT22;840;47.980;7.830;2023-08-06T12:37:05;16.40;99.90
1686;DHT22;840;47.980;7.830;2023-08-06T12:39:33;16.50;99.90
1686;DHT22;840;47.980;7.830;2023-08-06T12:42:00;16.50;99.90
1686;DHT22;840;47.980;7.830;2023-08-06T12:44:27;16.50;99.90
1686;DHT22;840;47.980;7.830;2023-08-06T12:46:55;16.40;99.90
1686;DHT22;840;47.980;7.830;2023-08-06T12:49:23;16.40;99.90
1686;DHT22;840;47.980;7.830;2023-08-06T12:51:50;16.10;99.90
1686;DHT22;840;47.980;7.830;2023-08-06T12:54:17;15.50;99.90
1686;DHT22;840;47.980;7.830;2023-08-06T12:56:45;15.00;99.90
1686;DHT22;840;47.980;7.830;2023-08-06T12:59:13;14.90;99.90
1686;DHT22;840;47.980;7.830;2023-08-06T13:01:40;14.80;99.90
1686;DHT22;840;47.980;7.830;2023-08-06T13:04:09;14.80;99.90
1686;DHT22;840;47.980;7.830;2023-08-06T13:06:36;14.90;99.90
1686;DHT22;840;47.980;7.830;2023-08-06T13:09:04;15.00;99.90
1686;DHT22;840;47.980;7.830;2023-08-06T13:11:31;15.20;99.90
1686;DHT22;840;47.980;7.830;2023-08-06T13:14:04;15.20;99.90
1686;DHT22;840;47.980;7.830;2023-08-06T13:16:31;15.30;99.90
1686;DHT22;840;47.980;7.830;2023-08-06T13:18:58;15.50;99.90
1686;DHT22;840;47.980;7.830;2023-08-06T13:21:32;15.90;99.90
1686;DHT22;840;47.980;7.830;2023-08-06T13:23:59;16.10;99.90
1686;DHT22;840;47.980;7.830;2023-08-06T13:26:27;16.20;99.90
1686;DHT22;840;47.980;7.830;2023-08-06T13:28:54;16.10;99.90
1686;DHT22;840;47.980;7.830;2023-08-06T13:31:21;16.10;99.90
1686;DHT22;840;47.980;7.830;2023-08-06T13:33:47;16.20;99.90
1686;DHT22;840;47.980;7.830;2023-08-06T13:36:15;16.10;99.90
1686;DHT22;840;47.980;7.830;2023-08-06T13:38:43;16.10;99.90
1686;DHT22;840;47.980;7.830;2023-08-06T13:41:10;16.20;99.90
1686;DHT22;840;47.980;7.830;2023-08-06T13:43:38;16.30;99.90
1686;DHT22;840;47.980;7.830;2023-08-06T13:46:05;16.30;99.90
1686;DHT22;840;47.980;7.830;2023-08-06T13:48:32;16.40;99.90
1686;DHT22;840;47.980;7.830;2023-08-06T13:50:58;16.40;99.90
1686;DHT22;840;47.980;7.830;2023-08-06T13:53:25;16.50;99.90
1686;DHT22;840;47.980;7.830;2023-08-06T13:55:56;16.50;99.90
1686;DHT22;840;47.980;7.830;2023-08-06T13:58:24;16.50;99.90
1686;DHT22;840;47.980;7.830;2023-08-06T14:00:51;16.50;99.90
1686;DHT22;840;47.980;7.830;2023-08-06T14:03:18;16.50;99.90
1686;DHT22;840;47.980;7.830;2023-08-06T14:05:45;16.50;99.90
1686;DHT22;840;47.980;7.830;2023-08-06T14:08:12;16.50;99.90
1686;DHT22;840;47.980;7.830;2023-08-06T14:10:39;16.60;99.90
1686;DHT22;840;47.980;7.830;2023-08-06T14:13:07;16.70;99.90
1686;DHT22;840;47.980;7.830;2023-08-06T14:15:34;16.70;99.90
1686;DHT22;840;47.980;7.830;2023-08-06T14:18:01;16.80;99.90
1686;DHT22;840;47.980;7.830;2023-08-06T14:20:28;16.90;99.90
1686;DHT22;840;47.980;7.830;2023-08-06T14:22:54;16.90;99.90
1686;DHT22;840;47.980;7.830;2023-08-06T14:25:21;16.90;99.90
1686;DHT22;840;47.980;7.830;2023-08-06T14:27:48;16.80;99.90
1686;DHT22;840;47.980;7.830;2023-08-06T14:30:17;16.80;99.90
1686;DHT22;840;47.980;7.830;2023-08-06T14:32:44;16.70;99.90
1686;DHT22;840;47.980;7.830;2023-08-06T14:35:10;16.50;99.90
1686;DHT22;840;47.980;7.830;2023-08-06T14:37:37;16.20;99.90
1686;DHT22;840;47.980;7.830;2023-08-06T14:40:05;16.30;99.90
1686;DHT22;840;47.980;7.830;2023-08-06T14:42:32;16.40;99.90
1686;DHT22;840;47.980;7.830;2023-08-06T14:44:59;16.50;99.90
1686;DHT22;840;47.980;7.830;2023-08-06T14:47:27;16.60;99.90
1686;DHT22;840;47.980;7.830;2023-08-06T14:49:54;16.70;99.90
1686;DHT22;840;47.980;7.830;2023-08-06T14:52:23;17.00;99.90
1686;DHT22;840;47.980;7.830;2023-08-06T14:54:50;17.40;99.90
1686;DHT22;840;47.980;7.830;2023-08-06T14:57:17;17.50;99.90
1686;DHT22;840;47.980;7.830;2023-08-06T14:59:44;17.60;99.90
1686;DHT22;840;47.980;7.830;2023-08-06T15:02:11;17.60;99.90
1686;DHT22;840;47.980;7.830;2023-08-06T15:04:39;17.60;99.90
1686;DHT22;840;47.980;7.830;2023-08-06T15:07:06;17.60;99.90
1686;DHT22;840;47.980;7.830;2023-08-06T15:09:35;17.60;99.90
1686;DHT22;840;47.980;7.830;2023-08-06T15:12:01;17.50;99.90
1686;DHT22;840;47.980;7.830;2023-08-06T15:14:28;17.40;99.90
1686;DHT22;840;47.980;7.830;2023-08-06T15:16:55;17.30;99.90
1686;DHT22;840;47.980;7.830;2023-08-06T15:19:23;17.20;99.90
1686;DHT22;840;47.980;7.830;2023-08-06T15:21:51;17.20;99.90
1686;DHT22;840;47.980;7.830;2023-08-06T15:24:18;17.00;99.90
1686;DHT22;840;47.980;7.830;2023-08-06T15:26:44;17.00;99.90
1686;DHT22;840;47.980;7.830;2023-08-06T15:29:11;16.90;99.90
1686;DHT22;840;47.980;7.830;2023-08-06T15:31:39;16.80;99.90
1686;DHT22;840;47.980;7.830;2023-08-06T15:34:06;16.70;99.90
1686;DHT22;840;47.980;7.830;2023-08-06T15:36:33;16.70;99.90
1686;DHT22;840;47.980;7.830;2023-08-06T15:39:02;16.70;99.90
1686;DHT22;840;47.980;7.830;2023-08-06T15:41:29;16.70;99.90
1686;DHT22;840;47.980;7.830;2023-08-06T15:43:56;16.70;99.90
1686;DHT22;840;47.980;7.830;2023-08-06T15:46:23;16.70;99.90
1686;DHT22;840;47.980;7.830;2023-08-06T15:48:49;16.80;99.90
1686;DHT22;840;47.980;7.830;2023-08-06T15:51:16;16.90;99.90
1686;DHT22;840;47.980;7.830;2023-08-06T15:53:43;17.00;99.90
1686;DHT22;840;47.980;7.830;2023-08-06T15:56:11;17.00;99.90
1686;DHT22;840;47.980;7.830;2023-08-06T15:58:37;17.10;99.90
1686;DHT22;840;47.980;7.830;2023-08-06T16:01:04;17.10;99.90
1686;DHT22;840;47.980;7.830;2023-08-06T16:03:31;17.20;99.90
1686;DHT22;840;47.980;7.830;2023-08-06T16:05:58;17.30;99.90
1686;DHT22;840;47.980;7.830;2023-08-06T16:08:24;17.30;99.90
1686;DHT22;840;47.980;7.830;2023-08-06T16:10:51;17.20;99.90
1686;DHT22;840;47.980;7.830;2023-08-06T16:13:19;17.20;99.90
1686;DHT22;840;47.980;7.830;2023-08-06T16:15:46;17.10;99.90
1686;DHT22;840;47.980;7.830;2023-08-06T16:18:13;17.10;99.90